Time;durP1;ratioP1;P1;durP2;ratioP2;P2;SDS_P1;SDS_P2;PMS_P1;PMS_P2;Temp;Humidity;BMP_temperature;BMP_pressure;BME280_temperature;BME280_humidity;BME280_pressure;Samples;Min_cycle;Max_cycle;Signal;HPM_P1;HPM_P2
2022/04/17 00:02:00;;;;;;;13.77;6.30;;;19.70;48.30;;;;;;4338389;33;20227;-70
2022/04/17 00:04:26;;;;;;;9.93;6.47;;;19.60;48.20;;;;;;4338284;33;20128;-70
2022/04/17 00:06:52;;;;;;;11.38;6.78;;;19.60;48.20;;;;;;4338222;33;20072;-70
2022/04/17 00:09:17;;;;;;;11.95;6.38;;;19.60;48.20;;;;;;4340904;33;20222;-70
2022/04/17 00:11:43;;;;;;;12.45;6.70;;;19.60;48.30;;;;;;4341124;33;20372;-70
2022/04/17 00:14:12;;;;;;;10.38;6.43;;;19.60;48.30;;;;;;4327771;33;20147;-70
2022/04/17 00:16:42;;;;;;;12.65;6.97;;;19.60;48.30;;;;;;4341139;33;20088;-70
2022/04/17 00:19:09;;;;;;;12.27;7.00;;;19.60;48.30;;;;;;4340941;33;20533;-70
2022/04/17 00:21:35;;;;;;;12.75;7.22;;;19.60;48.30;;;;;;4341016;33;20163;-70
2022/04/17 00:24:01;;;;;;;11.05;6.70;;;19.50;48.30;;;;;;4327771;33;20189;-70
2022/04/17 00:26:26;;;;;;;10.60;6.70;;;19.50;48.30;;;;;;4340792;33;20645;-70
2022/04/17 00:28:52;;;;;;;12.65;7.38;;;19.50;48.30;;;;;;4341007;33;20111;-70
2022/04/17 00:31:18;;;;;;;12.10;7.30;;;19.50;48.30;;;;;;4340941;33;20522;-70
2022/04/17 00:33:44;;;;;;;15.43;7.40;;;19.50;48.30;;;;;;4340884;33;20073;-70
2022/04/17 00:36:10;;;;;;;12.90;7.97;;;19.50;48.30;;;;;;4340838;33;20088;-70
2022/04/17 00:38:35;;;;;;;13.25;8.18;;;19.50;48.30;;;;;;4340854;33;20084;-70
2022/04/17 00:41:01;;;;;;;13.10;8.15;;;19.40;48.30;;;;;;4340672;33;20506;-70
2022/04/17 00:43:30;;;;;;;15.07;7.93;;;19.40;48.30;;;;;;4327352;33;20085;-70
2022/04/17 00:45:56;;;;;;;12.93;7.90;;;19.40;48.30;;;;;;4340773;33;20234;-70
2022/04/17 00:48:23;;;;;;;12.73;8.50;;;19.40;48.20;;;;;;4340691;33;20076;-70
2022/04/17 00:50:56;;;;;;;12.88;7.63;;;19.40;48.30;;;;;;4327364;33;20073;-70
2022/04/17 00:53:23;;;;;;;14.02;8.65;;;19.40;48.20;;;;;;4340706;33;20073;-70
2022/04/17 00:55:51;;;;;;;15.10;9.00;;;19.40;48.30;;;;;;4340155;33;20601;-70
2022/04/17 00:58:18;;;;;;;13.52;8.30;;;19.40;48.30;;;;;;4340871;33;20296;-70
2022/04/17 01:00:45;;;;;;;15.45;9.65;;;19.40;48.30;;;;;;4328158;33;20246;-70
2022/04/17 01:03:12;;;;;;;15.60;8.65;;;19.40;48.30;;;;;;4341291;33;20123;-70
2022/04/17 01:05:42;;;;;;;13.60;9.18;;;19.40;48.30;;;;;;4341476;33;20069;-70
2022/04/17 01:08:13;;;;;;;12.63;9.00;;;19.30;48.30;;;;;;4334753;33;20180;-70
2022/04/17 01:10:39;;;;;;;16.42;9.48;;;19.30;48.20;;;;;;4326178;33;20103;-70
2022/04/17 01:13:08;;;;;;;15.40;9.50;;;19.30;48.30;;;;;;4325406;33;20089;-70
2022/04/17 01:15:36;;;;;;;18.42;10.07;;;19.30;48.20;;;;;;4325089;33;20380;-70
2022/04/17 01:18:02;;;;;;;15.77;10.30;;;19.30;48.30;;;;;;4312079;33;20222;-70
2022/04/17 01:20:28;;;;;;;13.98;9.52;;;19.30;48.30;;;;;;4323428;33;20497;-70
2022/04/17 01:26:56;;;;;;;13.75;9.82;;;19.30;48.30;;;;;;4311863;33;20080;-70
2022/04/17 01:28:26;;;;;;;15.02;10.00;;;19.30;48.30;;;;;;4325145;33;20154;-70
2022/04/17 01:30:53;;;;;;;15.57;10.10;;;19.20;48.20;;;;;;4326256;33;20099;-70
2022/04/17 01:33:19;;;;;;;13.77;10.23;;;19.20;48.50;;;;;;4326444;33;20172;-70
2022/04/17 01:35:45;;;;;;;15.10;10.45;;;19.20;48.20;;;;;;4325154;33;20637;-70
2022/04/17 01:38:11;;;;;;;16.60;10.65;;;19.20;48.20;;;;;;4326179;33;20084;-70
2022/04/17 01:40:37;;;;;;;16.92;11.50;;;19.20;48.20;;;;;;4326212;33;20187;-69
2022/04/17 01:43:08;;;;;;;14.35;10.35;;;19.20;48.20;;;;;;4326256;33;20507;-70
2022/04/17 01:45:34;;;;;;;16.30;10.93;;;19.20;48.20;;;;;;4312990;33;20407;-70
2022/04/17 01:48:00;;;;;;;15.82;11.10;;;19.10;48.10;;;;;;4325970;33;20577;-70
2022/04/17 01:50:27;;;;;;;15.23;10.77;;;19.10;48.10;;;;;;4312834;33;20081;-70
2022/04/17 01:53:00;;;;;;;16.30;11.60;;;19.10;49.10;;;;;;4325949;33;20443;-70
2022/04/17 01:55:29;;;;;;;16.02;11.23;;;19.10;48.10;;;;;;4325717;33;20392;-70
2022/04/17 01:57:56;;;;;;;17.48;11.75;;;19.10;48.10;;;;;;4312541;33;20121;-70
2022/04/17 02:00:23;;;;;;;15.90;10.95;;;19.10;48.20;;;;;;4313373;33;20532;-70
2022/04/17 02:02:52;;;;;;;17.70;11.38;;;19.10;48.10;;;;;;4311352;33;20575;-70
2022/04/17 02:05:18;;;;;;;17.38;12.05;;;19.10;48.10;;;;;;4311111;33;20170;-70
2022/04/17 02:07:44;;;;;;;17.48;11.40;;;19.10;48.10;;;;;;4311177;33;20073;-70
2022/04/17 02:10:16;;;;;;;17.05;12.02;;;19.10;48.10;;;;;;4311287;33;20140;-70
2022/04/17 02:12:42;;;;;;;16.40;11.98;;;19.10;48.10;;;;;;4311305;33;20077;-70
2022/04/17 02:15:09;;;;;;;18.98;12.32;;;19.00;48.10;;;;;;4311009;33;20073;-70
2022/04/17 02:17:36;;;;;;;15.77;11.80;;;19.10;48.20;;;;;;4310983;33;20476;-70
2022/04/17 02:20:01;;;;;;;16.88;12.82;;;19.00;48.10;;;;;;4310873;33;20085;-70
2022/04/17 02:22:27;;;;;;;16.67;11.98;;;19.00;48.10;;;;;;4310541;33;20178;-69
2022/04/17 02:24:53;;;;;;;17.38;12.32;;;19.00;48.10;;;;;;4310657;33;20189;-70
2022/04/17 02:27:19;;;;;;;15.82;11.95;;;19.00;48.10;;;;;;4310672;33;20514;-70
2022/04/17 02:29:45;;;;;;;19.55;12.75;;;19.00;48.20;;;;;;4310840;33;20097;-70
2022/04/17 02:32:11;;;;;;;17.65;12.88;;;19.00;48.10;;;;;;4310340;33;20465;-70
2022/04/17 02:34:37;;;;;;;17.27;12.57;;;19.00;48.10;;;;;;4310516;33;20076;-70
2022/04/17 02:37:03;;;;;;;19.88;13.50;;;19.00;48.10;;;;;;4310938;33;20084;-70
2022/04/17 02:39:29;;;;;;;16.77;12.85;;;19.00;48.10;;;;;;4310582;33;20247;-70
2022/04/17 02:41:56;;;;;;;18.13;12.90;;;18.90;48.00;;;;;;4310906;33;20096;-70
2022/04/17 02:44:21;;;;;;;18.10;13.18;;;18.90;48.00;;;;;;4297541;33;20089;-69
2022/04/17 02:49:32;;;;;;;19.60;13.18;;;18.90;48.00;;;;;;4310869;33;20088;-70
2022/04/17 02:51:57;;;;;;;18.20;13.45;;;18.90;48.00;;;;;;4310978;33;20095;-70
2022/04/17 02:54:23;;;;;;;18.33;13.35;;;18.90;48.00;;;;;;4310551;33;20069;-70
2022/04/17 02:56:49;;;;;;;17.45;12.75;;;18.90;48.10;;;;;;4310376;33;20634;-70
2022/04/17 02:59:16;;;;;;;19.27;13.85;;;18.90;48.10;;;;;;4309922;33;20085;-70
2022/04/17 03:07:10;;;;;;;18.42;13.68;;;18.80;48.00;;;;;;4310512;33;20126;-70
2022/04/17 03:09:36;;;;;;;18.23;13.52;;;18.80;48.00;;;;;;4309295;33;20515;-70
2022/04/17 03:12:01;;;;;;;17.30;13.45;;;18.80;48.00;;;;;;4310038;33;20068;-69
2022/04/17 03:14:27;;;;;;;18.40;13.63;;;18.80;48.00;;;;;;4310487;33;20120;-70
2022/04/17 03:16:53;;;;;;;19.20;14.40;;;18.80;48.00;;;;;;4310178;33;20101;-69
2022/04/17 03:19:19;;;;;;;18.45;14.00;;;18.80;48.00;;;;;;4310132;33;20180;-69
2022/04/17 03:21:44;;;;;;;18.20;13.30;;;18.80;48.00;;;;;;4309929;33;20080;-70
2022/04/17 03:24:12;;;;;;;19.35;13.93;;;18.80;48.10;;;;;;4310293;33;20565;-69
2022/04/17 03:26:41;;;;;;;18.42;13.75;;;18.80;48.10;;;;;;4309755;33;20522;-70
2022/04/17 03:29:07;;;;;;;19.30;14.15;;;18.80;48.10;;;;;;4308803;33;20200;-70
2022/04/17 03:31:32;;;;;;;19.42;13.93;;;18.80;48.10;;;;;;4308918;33;20105;-70
2022/04/17 03:33:59;;;;;;;18.67;14.07;;;18.70;48.10;;;;;;4308862;33;20515;-70
2022/04/17 03:36:25;;;;;;;17.13;13.55;;;18.80;48.10;;;;;;4295988;33;20081;-70
2022/04/17 03:38:51;;;;;;;19.52;14.20;;;18.70;48.00;;;;;;4309032;33;20126;-70
2022/04/17 03:41:17;;;;;;;18.48;14.30;;;18.70;48.00;;;;;;4309921;33;20139;-70
2022/04/17 03:43:42;;;;;;;21.00;14.52;;;18.70;48.10;;;;;;4309957;33;20484;-70
2022/04/17 03:46:08;;;;;;;18.27;13.88;;;18.70;48.10;;;;;;4310181;33;20173;-70
2022/04/17 03:48:34;;;;;;;19.38;13.93;;;18.70;48.10;;;;;;4296760;33;20611;-69
2022/04/17 03:51:00;;;;;;;19.58;14.93;;;18.70;48.10;;;;;;4309901;33;20121;-70
2022/04/17 03:53:26;;;;;;;19.30;14.90;;;18.60;48.00;;;;;;4309087;33;20243;-70
2022/04/17 03:55:52;;;;;;;16.85;13.45;;;18.60;48.00;;;;;;4308279;33;20427;-69
2022/04/17 03:58:17;;;;;;;20.15;14.50;;;18.70;48.10;;;;;;4307575;33;20065;-69
2022/04/17 04:00:46;;;;;;;20.08;14.35;;;18.70;48.10;;;;;;4308568;33;20540;-69
2022/04/17 04:03:12;;;;;;;20.67;14.63;;;18.60;48.00;;;;;;4308501;33;20088;-69
2022/04/17 04:05:38;;;;;;;18.80;13.75;;;18.60;48.00;;;;;;4308566;33;20400;-69
2022/04/17 04:08:04;;;;;;;18.33;14.27;;;18.60;48.00;;;;;;4308801;33;20065;-70
2022/04/17 04:10:30;;;;;;;18.70;14.18;;;18.60;48.00;;;;;;4309762;33;20621;-70
2022/04/17 04:12:56;;;;;;;18.92;14.07;;;18.60;48.00;;;;;;4309782;33;20164;-70
2022/04/17 04:15:22;;;;;;;18.65;13.57;;;18.60;48.00;;;;;;4309414;33;20077;-69
2022/04/17 04:17:47;;;;;;;19.63;14.82;;;18.60;48.00;;;;;;4308716;33;20065;-70
2022/04/17 04:20:13;;;;;;;16.42;13.40;;;18.60;48.00;;;;;;4308044;33;20076;-69
2022/04/17 04:22:39;;;;;;;17.65;14.02;;;18.50;48.00;;;;;;4308813;33;20073;-70
2022/04/17 04:25:07;;;;;;;20.40;14.20;;;18.60;48.10;;;;;;4309555;33;20403;-70
2022/04/17 04:30:19;;;;;;;16.55;13.30;;;18.50;48.00;;;;;;4293799;33;20096;-70
2022/04/17 04:32:56;;;;;;;19.30;13.52;;;18.50;48.10;;;;;;4309950;33;20388;-70
2022/04/17 04:35:23;;;;;;;19.45;14.07;;;18.50;48.00;;;;;;4309843;33;20519;-69
2022/04/17 04:37:49;;;;;;;18.80;13.75;;;18.50;48.10;;;;;;4309612;33;20095;-69
2022/04/17 04:40:16;;;;;;;20.05;14.40;;;18.50;48.10;;;;;;4309269;33;20081;-69
2022/04/17 04:42:42;;;;;;;18.42;13.90;;;18.50;48.10;;;;;;4309555;33;20173;-70
2022/04/17 04:47:52;;;;;;;18.58;13.93;;;18.50;48.10;;;;;;4308308;33;20516;-70
2022/04/17 04:50:18;;;;;;;18.55;13.40;;;18.50;48.10;;;;;;4308136;33;20069;-69
2022/04/17 04:52:44;;;;;;;17.77;13.32;;;18.40;48.00;;;;;;4308135;33;20639;-70
2022/04/17 04:55:10;;;;;;;18.40;13.88;;;18.40;48.00;;;;;;4309264;33;20144;-69
2022/04/17 04:57:36;;;;;;;14.65;12.75;;;18.40;48.00;;;;;;4310686;33;20143;-69
2022/04/17 05:00:05;;;;;;;17.67;12.88;;;18.40;48.00;;;;;;4310504;33;20295;-69
2022/04/17 05:02:31;;;;;;;17.55;13.18;;;18.40;48.00;;;;;;4310657;33;20096;-69
2022/04/17 05:04:58;;;;;;;17.00;12.93;;;18.40;48.00;;;;;;4311473;33;20079;-69
2022/04/17 05:07:24;;;;;;;18.05;13.52;;;18.40;48.00;;;;;;4312140;33;20092;-69
2022/04/17 05:09:50;;;;;;;17.88;13.45;;;18.40;48.10;;;;;;4311900;33;20113;-69
2022/04/17 05:12:16;;;;;;;18.70;13.30;;;18.40;48.10;;;;;;4311949;33;20062;-69
2022/04/17 05:14:44;;;;;;;16.33;12.57;;;18.30;48.00;;;;;;4311987;33;20077;-69
2022/04/17 05:17:09;;;;;;;16.88;12.90;;;18.40;48.10;;;;;;4312120;33;20097;-69
2022/04/17 05:19:38;;;;;;;16.88;12.57;;;18.40;48.10;;;;;;4311726;33;20534;-69
2022/04/17 05:22:10;;;;;;;17.60;12.90;;;18.40;48.10;;;;;;4311849;33;20085;-69
2022/04/17 05:24:38;;;;;;;16.40;13.00;;;18.30;48.10;;;;;;4312104;33;20535;-69
2022/04/17 05:27:04;;;;;;;16.85;12.20;;;18.30;48.10;;;;;;4311696;33;20077;-69
2022/04/17 05:29:30;;;;;;;16.30;12.73;;;18.30;48.10;;;;;;4311704;33;20239;-69
2022/04/17 05:31:56;;;;;;;16.38;12.93;;;18.30;48.10;;;;;;4300262;33;20095;-69
2022/04/17 05:34:22;;;;;;;16.23;12.23;;;18.30;48.10;;;;;;4319653;33;20234;-69
2022/04/17 05:36:48;;;;;;;17.60;12.40;;;18.30;48.20;;;;;;4322665;33;20081;-69
2022/04/17 05:39:14;;;;;;;15.57;11.95;;;18.30;48.20;;;;;;4323815;33;20115;-69
2022/04/17 05:41:40;;;;;;;16.38;12.27;;;18.30;48.20;;;;;;4325213;33;20083;-69
2022/04/17 05:44:07;;;;;;;17.60;13.23;;;18.30;48.20;;;;;;4325400;33;20165;-69
2022/04/17 05:46:36;;;;;;;17.35;12.57;;;18.30;48.20;;;;;;4323178;33;20204;-70
2022/04/17 05:49:05;;;;;;;16.88;12.88;;;18.30;48.20;;;;;;4324617;33;20219;-69
2022/04/17 05:51:36;;;;;;;16.95;12.93;;;18.30;48.20;;;;;;4321396;33;20080;-69
2022/04/17 05:54:07;;;;;;;17.23;12.45;;;18.20;48.10;;;;;;4325300;33;20088;-69
2022/04/17 05:56:35;;;;;;;16.15;11.90;;;18.20;48.10;;;;;;4311620;33;20081;-69
2022/04/17 05:59:01;;;;;;;17.33;12.07;;;18.20;48.10;;;;;;4313421;33;20163;-69
2022/04/17 06:01:29;;;;;;;15.60;11.70;;;18.20;48.20;;;;;;4325487;33;20112;-69
2022/04/17 06:03:55;;;;;;;15.82;12.25;;;18.20;48.20;;;;;;4325527;33;20076;-69
2022/04/17 06:06:21;;;;;;;16.05;12.35;;;18.20;48.20;;;;;;4324372;33;20543;-69
2022/04/17 06:08:47;;;;;;;14.88;12.02;;;18.20;48.30;;;;;;4324768;33;20092;-69
2022/04/17 06:11:14;;;;;;;15.15;11.70;;;18.20;48.30;;;;;;4324889;33;20519;-70
2022/04/17 06:13:40;;;;;;;16.02;11.50;;;18.20;48.30;;;;;;4337592;33;20068;-70
2022/04/17 06:16:06;;;;;;;15.10;11.48;;;18.20;48.30;;;;;;4339675;33;20068;-70
2022/04/17 06:18:32;;;;;;;15.45;11.07;;;18.20;48.30;;;;;;4340460;33;20072;-69
2022/04/17 06:20:58;;;;;;;15.75;11.48;;;18.30;48.30;;;;;;4340314;33;20164;-69
2022/04/17 06:23:24;;;;;;;14.75;11.10;;;18.20;48.30;;;;;;4327000;33;20091;-69
2022/04/17 06:25:50;;;;;;;14.70;11.40;;;18.30;48.30;;;;;;4339874;33;20116;-69
2022/04/17 06:28:16;;;;;;;14.60;10.85;;;18.20;48.20;;;;;;4340105;33;20076;-69
2022/04/17 06:30:42;;;;;;;13.43;10.68;;;18.30;48.30;;;;;;4340249;33;20127;-69
2022/04/17 06:33:08;;;;;;;13.95;11.02;;;18.30;48.30;;;;;;4326835;33;20507;-69
2022/04/17 06:35:33;;;;;;;14.73;10.98;;;18.30;48.30;;;;;;4340310;33;20096;-68
2022/04/17 06:38:01;;;;;;;13.70;10.75;;;18.30;48.30;;;;;;4339646;33;20073;-69
2022/04/17 06:40:29;;;;;;;14.90;11.20;;;18.30;48.40;;;;;;4340108;33;20072;-68
2022/04/17 06:42:57;;;;;;;14.77;10.85;;;18.30;48.40;;;;;;4340177;33;20072;-70
2022/04/17 06:45:25;;;;;;;14.15;11.05;;;18.30;48.40;;;;;;4340116;33;20084;-69
2022/04/17 06:47:51;;;;;;;14.70;10.85;;;18.30;48.40;;;;;;4339852;33;20124;-69
2022/04/17 06:50:18;;;;;;;15.20;11.07;;;18.30;48.50;;;;;;4340038;33;20096;-69
2022/04/17 06:52:44;;;;;;;14.38;11.15;;;18.30;48.50;;;;;;4339821;33;20080;-70
2022/04/17 06:55:14;;;;;;;13.02;10.35;;;18.30;48.50;;;;;;4340040;33;20076;-70
2022/04/17 06:57:50;;;;;;;13.75;10.82;;;18.30;48.50;;;;;;4339205;33;20073;-70
2022/04/17 07:00:17;;;;;;;13.15;10.30;;;18.30;48.20;;;;;;4328153;33;20220;-70
2022/04/17 07:02:44;;;;;;;13.10;9.73;;;18.40;48.00;;;;;;4324960;33;20404;-70
2022/04/17 07:05:12;;;;;;;15.65;10.90;;;18.40;48.00;;;;;;4324860;33;20145;-70
2022/04/17 07:07:38;;;;;;;14.80;9.98;;;18.40;47.90;;;;;;4324617;33;20100;-70
2022/04/17 07:10:04;;;;;;;17.00;10.55;;;18.50;47.80;;;;;;4324912;33;20061;-70
2022/04/17 07:12:30;;;;;;;12.52;9.40;;;18.50;47.60;;;;;;4311761;33;20488;-70
2022/04/17 07:15:00;;;;;;;15.55;10.35;;;18.50;47.40;;;;;;4324851;33;20107;-70
2022/04/17 07:17:34;;;;;;;14.27;10.13;;;18.50;47.20;;;;;;4324721;33;20103;-70
2022/04/17 07:20:00;;;;;;;;;;;18.60;47.00;;;;;;4312483;33;20396;-70
2022/04/17 07:22:26;;;;;;;14.48;9.60;;;18.60;46.60;;;;;;4324748;33;19980;-71
2022/04/17 07:24:54;;;;;;;14.57;10.02;;;18.60;47.00;;;;;;4324913;33;20081;-71
2022/04/17 07:27:20;;;;;;;17.05;10.02;;;18.60;46.80;;;;;;4324474;33;20089;-70
2022/04/17 07:29:47;;;;;;;14.07;10.13;;;18.60;46.70;;;;;;4324683;33;20095;-71
2022/04/17 07:32:13;;;;;;;13.00;9.65;;;18.70;46.70;;;;;;4311306;33;20089;-70
2022/04/17 07:34:38;;;;;;;13.77;9.57;;;18.70;46.60;;;;;;4324698;33;20072;-70
2022/04/17 07:37:05;;;;;;;14.23;9.98;;;18.70;46.50;;;;;;4323951;33;20077;-70
2022/04/17 07:39:31;;;;;;;15.50;10.07;;;18.70;46.40;;;;;;4324126;33;20487;-70
2022/04/17 07:41:57;;;;;;;13.07;8.95;;;18.70;46.30;;;;;;4324483;33;20139;-69
2022/04/17 07:44:26;;;;;;;15.00;9.23;;;18.70;46.30;;;;;;4324494;33;20080;-70
2022/04/17 07:46:52;;;;;;;13.00;9.43;;;18.70;46.10;;;;;;4324281;33;20630;-71
2022/04/17 07:49:18;;;;;;;13.63;8.98;;;18.70;45.90;;;;;;4324440;33;20065;-70
2022/04/17 07:51:44;;;;;;;16.42;9.90;;;18.70;45.90;;;;;;4324727;33;20077;-70
2022/04/17 07:54:10;;;;;;;16.25;9.90;;;18.70;45.60;;;;;;4311473;33;20115;-71
2022/04/17 07:56:37;;;;;;;14.15;8.93;;;18.80;45.40;;;;;;4324234;33;20072;-71
2022/04/17 07:59:04;;;;;;;11.88;9.05;;;18.80;45.40;;;;;;4314891;33;20192;-71
2022/04/17 08:01:33;;;;;;;13.63;9.45;;;18.80;45.20;;;;;;4338951;33;20084;-70
2022/04/17 08:03:58;;;;;;;14.80;9.32;;;18.80;45.10;;;;;;4339727;33;20235;-71
2022/04/17 08:06:25;;;;;;;16.15;9.80;;;18.90;45.10;;;;;;4339269;33;20491;-71
2022/04/17 08:08:52;;;;;;;14.55;9.48;;;18.90;45.10;;;;;;4338665;33;20263;-71
2022/04/17 08:11:18;;;;;;;14.93;9.05;;;18.90;45.10;;;;;;4325705;33;20093;-71
2022/04/17 08:13:46;;;;;;;13.15;8.88;;;18.90;45.00;;;;;;4339244;33;20163;-71
2022/04/17 08:16:13;;;;;;;13.35;8.52;;;19.00;45.00;;;;;;4338862;33;20100;-74
2022/04/17 08:18:39;;;;;;;14.35;8.52;;;19.00;44.80;;;;;;4339283;33;20095;-70
2022/04/17 08:21:06;;;;;;;13.13;8.65;;;19.00;44.70;;;;;;4338911;33;20099;-69
2022/04/17 08:23:37;;;;;;;12.30;8.63;;;19.00;44.60;;;;;;4338450;33;20073;-71
2022/04/17 08:26:05;;;;;;;13.43;8.30;;;19.10;44.60;;;;;;4338371;33;20100;-71
2022/04/17 08:28:31;;;;;;;11.75;8.05;;;19.10;44.60;;;;;;4339217;33;20514;-70
2022/04/17 08:30:57;;;;;;;15.88;8.20;;;19.10;44.40;;;;;;4341768;33;20076;-71
2022/04/17 08:33:24;;;;;;;12.30;7.50;;;19.10;44.20;;;;;;4328532;33;20104;-70
2022/04/17 08:35:50;;;;;;;10.88;7.43;;;19.20;44.30;;;;;;4341944;33;20073;-69
2022/04/17 08:38:19;;;;;;;9.95;7.18;;;19.20;44.20;;;;;;4328471;33;20652;-69
2022/04/17 08:40:45;;;;;;;16.52;7.80;;;19.20;44.00;;;;;;4341900;33;20503;-69
2022/04/17 08:43:11;;;;;;;11.43;7.05;;;19.20;44.70;;;;;;4341569;33;20215;-70
2022/04/17 08:45:37;;;;;;;14.02;7.45;;;19.30;43.90;;;;;;4341764;33;20084;-73
2022/04/17 08:48:04;;;;;;;14.82;6.95;;;19.30;44.20;;;;;;4328044;33;20135;-70
2022/04/17 08:50:31;;;;;;;12.07;7.00;;;19.20;44.40;;;;;;4328034;33;20083;-70
2022/04/17 08:52:58;;;;;;;10.85;6.53;;;19.20;44.70;;;;;;4341124;33;20523;-70
2022/04/17 08:55:24;;;;;;;10.27;6.15;;;19.20;44.90;;;;;;4341647;33;20103;-70
2022/04/17 08:57:50;;;;;;;10.98;6.75;;;19.20;45.10;;;;;;4341200;33;20080;-70
2022/04/17 09:00:17;;;;;;;15.25;6.68;;;19.20;45.30;;;;;;4329520;33;20098;-70
2022/04/17 09:02:44;;;;;;;12.55;6.43;;;19.10;45.40;;;;;;4326649;33;20117;-71
2022/04/17 09:05:12;;;;;;;10.32;6.22;;;19.10;45.60;;;;;;4313256;33;20084;-71
2022/04/17 09:07:45;;;;;;;12.40;6.00;;;19.10;45.80;;;;;;4326493;33;20091;-71
2022/04/17 09:10:22;;;;;;;11.40;5.63;;;19.10;46.90;;;;;;4326660;33;20151;-70
2022/04/17 09:12:52;;;;;;;9.90;5.63;;;19.10;46.00;;;;;;4326520;33;20500;-71
2022/04/17 09:15:22;;;;;;;8.57;5.28;;;19.10;47.10;;;;;;4326518;33;20132;-71
2022/04/17 09:17:50;;;;;;;9.38;6.15;;;19.10;46.30;;;;;;4326748;33;20069;-70
2022/04/17 09:20:22;;;;;;;8.27;5.18;;;19.10;46.40;;;;;;4326325;33;20091;-70
2022/04/17 09:22:53;;;;;;;6.70;4.97;;;19.10;46.50;;;;;;4326356;33;20069;-70
2022/04/17 09:25:22;;;;;;;7.22;5.25;;;19.10;46.60;;;;;;4312987;33;20103;-71
2022/04/17 09:27:59;;;;;;;8.43;5.18;;;19.00;46.60;;;;;;4326060;33;20073;-70
2022/04/17 09:30:28;;;;;;;9.13;5.38;;;19.10;46.80;;;;;;4326418;33;20180;-70
2022/04/17 09:32:55;;;;;;;9.77;5.25;;;19.10;46.80;;;;;;4326481;33;20219;-70
2022/04/17 09:35:23;;;;;;;8.70;4.85;;;19.00;46.90;;;;;;4325862;33;20139;-70
2022/04/17 09:37:58;;;;;;;10.55;5.13;;;19.10;47.00;;;;;;4326394;33;20079;-70
2022/04/17 09:40:27;;;;;;;8.38;5.50;;;19.10;47.00;;;;;;4325682;33;20216;-70
2022/04/17 09:43:12;;;;;;;9.48;4.68;;;19.10;47.10;;;;;;4326086;33;20097;-70
2022/04/17 09:45:58;;;;;;;8.25;4.68;;;19.00;47.00;;;;;;4325991;33;20393;-70
2022/04/17 09:48:24;;;;;;;9.02;4.75;;;19.10;47.10;;;;;;4325737;33;20499;-70
2022/04/17 09:50:50;;;;;;;7.75;4.70;;;19.00;47.00;;;;;;4313001;33;20084;-70
2022/04/17 09:53:36;;;;;;;7.55;4.65;;;19.10;47.20;;;;;;4325908;33;20534;-70
2022/04/17 09:56:10;;;;;;;8.32;4.90;;;19.00;47.10;;;;;;4325572;33;20135;-70
2022/04/17 09:58:48;;;;;;;9.75;4.68;;;19.00;47.20;;;;;;4312327;33;20201;-69
2022/04/17 10:01:18;;;;;;;8.02;4.60;;;19.00;47.20;;;;;;4325467;33;20165;-70
2022/04/17 10:03:46;;;;;;;11.15;4.88;;;19.00;47.30;;;;;;4325870;33;20069;-70
2022/04/17 10:06:12;;;;;;;6.65;4.88;;;19.00;47.30;;;;;;4325461;33;20274;-70
2022/04/17 10:08:45;;;;;;;6.40;4.28;;;19.00;47.30;;;;;;4312586;33;20103;-70
2022/04/17 10:11:14;;;;;;;5.97;4.10;;;19.10;47.40;;;;;;4312239;33;20128;-70
2022/04/17 10:13:41;;;;;;;7.43;4.53;;;19.00;47.40;;;;;;4325596;33;20076;-71
2022/04/17 10:16:09;;;;;;;6.00;4.40;;;19.00;47.40;;;;;;4325631;33;20081;-70
2022/04/17 10:18:39;;;;;;;5.90;4.10;;;19.00;47.50;;;;;;4325487;33;20080;-70
2022/04/17 10:21:06;;;;;;;5.65;3.78;;;19.00;47.50;;;;;;4325477;33;20212;-70
2022/04/17 10:23:35;;;;;;;6.35;4.40;;;19.00;47.50;;;;;;4325446;33;20088;-70
2022/04/17 10:26:03;;;;;;;7.55;4.22;;;19.00;47.50;;;;;;4324959;33;20101;-70
2022/04/17 10:28:34;;;;;;;5.97;3.70;;;19.00;47.50;;;;;;4325462;33;20088;-70
2022/04/17 10:31:20;;;;;;;7.47;4.47;;;19.00;47.50;;;;;;4325669;33;20192;-70
2022/04/17 10:33:53;;;;;;;7.57;3.90;;;19.00;47.60;;;;;;4325495;33;20517;-69
2022/04/17 10:36:29;;;;;;;6.85;3.97;;;19.00;47.60;;;;;;4325510;33;20320;-70
2022/04/17 10:39:23;;;;;;;4.85;3.63;;;19.00;47.60;;;;;;4325417;33;20084;-70
2022/04/17 10:41:49;;;;;;;8.23;3.92;;;19.00;47.50;;;;;;4325283;33;20095;-70
2022/04/17 10:44:16;;;;;;;5.57;3.60;;;19.00;47.60;;;;;;4325405;33;20069;-70
2022/04/17 10:46:49;;;;;;;6.15;4.03;;;19.00;47.60;;;;;;4325400;33;20240;-70
2022/04/17 10:49:20;;;;;;;5.65;3.45;;;19.00;47.60;;;;;;4325170;33;20072;-70
2022/04/17 10:51:54;;;;;;;6.50;4.07;;;19.00;47.50;;;;;;4324958;33;20095;-70
2022/04/17 10:54:20;;;;;;;5.78;3.60;;;19.00;47.50;;;;;;4324828;33;20081;-70
2022/04/17 10:56:55;;;;;;;5.63;3.50;;;19.00;47.50;;;;;;4324832;33;20076;-70
2022/04/17 10:59:28;;;;;;;5.72;3.60;;;19.00;47.50;;;;;;4325028;33;20527;-70
2022/04/17 11:02:07;;;;;;;6.18;3.67;;;19.00;47.50;;;;;;4324926;33;20385;-70
2022/04/17 11:04:53;;;;;;;4.25;3.20;;;19.00;47.50;;;;;;4324630;33;20081;-70
2022/04/17 11:07:23;;;;;;;4.55;3.47;;;19.00;47.40;;;;;;4325389;33;20139;-69
2022/04/17 11:10:25;;;;;;;6.03;3.50;;;19.00;47.50;;;;;;4324847;33;20096;-70
2022/04/17 11:12:55;;;;;;;5.43;3.38;;;19.00;47.50;;;;;;4324873;33;20669;-70
2022/04/17 11:15:24;;;;;;;5.03;3.33;;;19.00;47.50;;;;;;4325123;33;20108;-70
2022/04/17 11:17:50;;;;;;;4.55;3.30;;;19.00;47.50;;;;;;4324755;33;20149;-70
2022/04/17 11:20:17;;;;;;;5.20;3.35;;;19.00;47.50;;;;;;4324979;33;20077;-70
2022/04/17 11:22:42;;;;;;;7.03;3.33;;;19.00;47.50;;;;;;4324694;33;20212;-70
2022/04/17 11:25:11;;;;;;;5.05;3.10;;;19.00;47.50;;;;;;4324700;33;20578;-70
2022/04/17 11:28:02;;;;;;;5.13;3.53;;;19.00;47.50;;;;;;4324724;33;20619;-69
2022/04/17 11:30:29;;;;;;;4.75;3.22;;;19.00;47.50;;;;;;4324626;33;20076;-70
2022/04/17 11:32:56;;;;;;;4.72;3.08;;;19.00;47.50;;;;;;4324617;33;20084;-69
2022/04/17 11:35:26;;;;;;;6.25;3.22;;;19.00;47.50;;;;;;4311545;33;20258;-70
2022/04/17 11:37:53;;;;;;;4.93;3.13;;;19.00;47.50;;;;;;4324533;33;20112;-70
2022/04/17 11:40:20;;;;;;;6.70;3.05;;;19.00;47.50;;;;;;4324454;33;20076;-70
2022/04/17 11:42:48;;;;;;;5.18;3.03;;;19.00;47.50;;;;;;4324492;33;20084;-70
2022/04/17 11:45:28;;;;;;;3.65;2.50;;;19.00;47.40;;;;;;4324758;33;20112;-70
2022/04/17 11:48:04;;;;;;;4.90;3.20;;;19.00;47.40;;;;;;4324367;33;20109;-69
2022/04/17 11:50:29;;;;;;;5.68;3.03;;;19.00;47.40;;;;;;4324887;33;20064;-70
2022/04/17 11:53:02;;;;;;;3.95;2.85;;;19.00;47.40;;;;;;4324484;33;20069;-70
2022/04/17 11:55:34;;;;;;;3.87;2.77;;;19.00;47.30;;;;;;4324457;33;20088;-69
2022/04/17 11:58:01;;;;;;;4.05;2.83;;;19.00;47.30;;;;;;4324109;33;20223;-69
2022/04/17 12:00:28;;;;;;;5.93;3.03;;;19.00;47.30;;;;;;4323952;33;20222;-70
2022/04/17 12:02:56;;;;;;;3.60;2.65;;;19.00;47.30;;;;;;4324416;33;20238;-70
2022/04/17 12:05:22;;;;;;;4.22;2.67;;;19.00;47.30;;;;;;4327360;33;20116;-70
2022/04/17 12:08:01;;;;;;;5.07;2.72;;;19.00;47.10;;;;;;4327475;33;20150;-70
2022/04/17 12:10:28;;;;;;;4.38;2.55;;;19.00;47.00;;;;;;4326891;33;20219;-68
2022/04/17 12:12:54;;;;;;;4.50;2.90;;;19.00;46.40;;;;;;4327379;33;20084;-68
2022/04/17 12:15:21;;;;;;;3.88;3.13;;;19.10;44.30;;;;;;4314128;33;20493;-68
2022/04/17 12:18:00;;;;;;;4.38;2.70;;;19.20;43.40;;;;;;4327237;33;20112;-68
2022/04/17 12:20:27;;;;;;;5.55;2.78;;;19.30;42.50;;;;;;4327231;33;20083;-68
2022/04/17 12:22:53;;;;;;;4.63;3.17;;;19.40;42.30;;;;;;4327222;33;20535;-68
2022/04/17 12:25:22;;;;;;;3.78;2.88;;;19.50;41.70;;;;;;4314042;33;20534;-69
2022/04/17 12:27:50;;;;;;;4.38;2.92;;;19.50;41.00;;;;;;4326921;33;20427;-75
2022/04/17 12:30:21;;;;;;;7.20;2.97;;;19.60;41.40;;;;;;4327327;33;20077;-70
2022/04/17 12:32:48;;;;;;;7.10;2.92;;;19.60;40.40;;;;;;4326849;33;20144;-70
2022/04/17 12:35:25;;;;;;;4.95;2.70;;;19.70;40.00;;;;;;4327120;33;20077;-70
2022/04/17 12:38:10;;;;;;;5.22;2.50;;;19.70;39.30;;;;;;4326594;33;20160;-69
2022/04/17 12:40:42;;;;;;;4.18;2.20;;;19.70;38.90;;;;;;4327008;33;20523;-69
2022/04/17 12:43:16;;;;;;;13.65;3.00;;;19.70;39.20;;;;;;4326777;33;20088;-69
2022/04/17 12:45:55;;;;;;;;;;;19.80;38.80;;;;;;4328090;33;20315;-69
2022/04/17 12:48:28;;;;;;;4.97;2.45;;;19.80;37.90;;;;;;4327069;33;20096;-69
2022/04/17 12:51:05;;;;;;;8.13;2.70;;;19.80;38.70;;;;;;4326849;33;20092;-69
2022/04/17 12:53:37;;;;;;;3.13;2.30;;;19.80;38.60;;;;;;4327130;33;20087;-69
2022/04/17 12:56:04;;;;;;;2.88;2.28;;;19.80;38.30;;;;;;4326448;33;20092;-69
2022/04/17 12:58:46;;;;;;;5.55;2.67;;;19.80;38.00;;;;;;4326510;33;20139;-70